Bonaire, Georgia
Current Conditions -  °F | °C
As of 12:58 PM on Thursday 23 Oct 2014 (Local Time) from KWRB Reporting Station
Clear Clear  
Wind Chill: 65°   Ceiling: Unl
Heat Index: 65°   Visibility: 10mi
Dew Point: 43°   Wind: 2mph
Humidity: 44%   Direction: NA
Pressure: 30.1"   Gusts: NA
Location:  32.54°N, 83.6°W
Report Text: KWRB 231658Z AUTO VRB02KT 10SM CLR 19/06 A3010 RMK AO2 SLP195 T01850061
Loading
Personal Weather Stations






























Interactive Weather Map New forecast layout! Learn more

10-Day Weather Forecast

Advertisements
Track Severe Weather on mobile